sensor_id;sensor_type;location;lat;lon;timestamp;temperature;humidity
19892;DHT22;10108;50.142;8.724;2023-03-01T00:01:04;2.80;97.70
19892;DHT22;10108;50.142;8.724;2023-03-01T00:03:32;2.90;98.10
19892;DHT22;10108;50.142;8.724;2023-03-01T00:05:59;2.90;97.90
19892;DHT22;10108;50.142;8.724;2023-03-01T00:08:26;2.90;97.70
19892;DHT22;10108;50.142;8.724;2023-03-01T00:11:13;2.80;97.90
19892;DHT22;10108;50.142;8.724;2023-03-01T00:13:40;2.80;98.10
19892;DHT22;10108;50.142;8.724;2023-03-01T00:16:10;2.80;98.10
19892;DHT22;10108;50.142;8.724;2023-03-01T00:18:36;2.80;98.00
19892;DHT22;10108;50.142;8.724;2023-03-01T00:21:03;2.80;98.00
19892;DHT22;10108;50.142;8.724;2023-03-01T00:23:29;2.80;98.10
19892;DHT22;10108;50.142;8.724;2023-03-01T00:25:55;2.90;98.00
19892;DHT22;10108;50.142;8.724;2023-03-01T00:28:21;2.80;97.90
19892;DHT22;10108;50.142;8.724;2023-03-01T00:30:47;2.80;97.90
19892;DHT22;10108;50.142;8.724;2023-03-01T00:33:13;2.80;98.20
19892;DHT22;10108;50.142;8.724;2023-03-01T00:35:39;2.80;98.30
19892;DHT22;10108;50.142;8.724;2023-03-01T00:38:06;2.80;98.20
19892;DHT22;10108;50.142;8.724;2023-03-01T00:40:34;2.80;98.10
19892;DHT22;10108;50.142;8.724;2023-03-01T00:43:01;2.80;97.90
19892;DHT22;10108;50.142;8.724;2023-03-01T00:45:27;2.80;98.00
19892;DHT22;10108;50.142;8.724;2023-03-01T00:47:54;2.90;98.40
19892;DHT22;10108;50.142;8.724;2023-03-01T00:50:20;2.90;98.00
19892;DHT22;10108;50.142;8.724;2023-03-01T00:52:46;2.90;98.10
19892;DHT22;10108;50.142;8.724;2023-03-01T00:55:12;3.00;98.10
19892;DHT22;10108;50.142;8.724;2023-03-01T00:57:39;2.90;97.90
19892;DHT22;10108;50.142;8.724;2023-03-01T01:00:07;2.90;98.10
19892;DHT22;10108;50.142;8.724;2023-03-01T01:02:34;2.90;98.10
19892;DHT22;10108;50.142;8.724;2023-03-01T01:05:00;2.90;98.00
19892;DHT22;10108;50.142;8.724;2023-03-01T01:07:27;2.80;97.90
19892;DHT22;10108;50.142;8.724;2023-03-01T01:09:53;2.90;98.20
19892;DHT22;10108;50.142;8.724;2023-03-01T01:12:19;2.90;98.20
19892;DHT22;10108;50.142;8.724;2023-03-01T01:14:45;2.90;98.40
19892;DHT22;10108;50.142;8.724;2023-03-01T01:17:12;2.90;98.60
19892;DHT22;10108;50.142;8.724;2023-03-01T01:19:38;2.90;98.30
19892;DHT22;10108;50.142;8.724;2023-03-01T01:22:04;2.90;98.60
19892;DHT22;10108;50.142;8.724;2023-03-01T01:24:31;2.90;98.40
19892;DHT22;10108;50.142;8.724;2023-03-01T01:26:57;2.90;98.40
19892;DHT22;10108;50.142;8.724;2023-03-01T01:29:23;2.90;98.40
19892;DHT22;10108;50.142;8.724;2023-03-01T01:31:49;2.90;98.50
19892;DHT22;10108;50.142;8.724;2023-03-01T01:34:18;2.90;98.40
19892;DHT22;10108;50.142;8.724;2023-03-01T01:36:52;2.80;98.40
19892;DHT22;10108;50.142;8.724;2023-03-01T01:39:20;2.90;98.40
19892;DHT22;10108;50.142;8.724;2023-03-01T01:41:47;2.90;98.30
19892;DHT22;10108;50.142;8.724;2023-03-01T01:44:27;2.90;98.30
19892;DHT22;10108;50.142;8.724;2023-03-01T01:46:58;2.80;98.40
19892;DHT22;10108;50.142;8.724;2023-03-01T01:49:51;2.80;98.20
19892;DHT22;10108;50.142;8.724;2023-03-01T01:52:31;2.80;98.30
19892;DHT22;10108;50.142;8.724;2023-03-01T01:55:03;2.80;98.10
19892;DHT22;10108;50.142;8.724;2023-03-01T01:57:40;2.70;98.30
19892;DHT22;10108;50.142;8.724;2023-03-01T02:00:11;2.70;98.50
19892;DHT22;10108;50.142;8.724;2023-03-01T02:02:40;2.70;98.40
19892;DHT22;10108;50.142;8.724;2023-03-01T02:05:25;2.70;98.40
19892;DHT22;10108;50.142;8.724;2023-03-01T02:07:52;2.70;98.30
19892;DHT22;10108;50.142;8.724;2023-03-01T02:10:21;2.70;98.40
19892;DHT22;10108;50.142;8.724;2023-03-01T02:12:48;2.70;98.50
19892;DHT22;10108;50.142;8.724;2023-03-01T02:15:15;2.80;98.70
19892;DHT22;10108;50.142;8.724;2023-03-01T02:17:41;2.80;98.60
19892;DHT22;10108;50.142;8.724;2023-03-01T02:22:57;2.80;98.60
19892;DHT22;10108;50.142;8.724;2023-03-01T02:30:44;2.80;98.70
19892;DHT22;10108;50.142;8.724;2023-03-01T02:33:31;2.80;98.60
19892;DHT22;10108;50.142;8.724;2023-03-01T02:36:09;2.70;98.20
19892;DHT22;10108;50.142;8.724;2023-03-01T02:38:37;2.60;98.30
19892;DHT22;10108;50.142;8.724;2023-03-01T02:41:05;2.60;98.60
19892;DHT22;10108;50.142;8.724;2023-03-01T02:43:33;2.60;98.70
19892;DHT22;10108;50.142;8.724;2023-03-01T02:46:26;2.70;98.80
19892;DHT22;10108;50.142;8.724;2023-03-01T02:48:55;2.70;98.80
19892;DHT22;10108;50.142;8.724;2023-03-01T02:56:26;2.70;98.90
19892;DHT22;10108;50.142;8.724;2023-03-01T02:58:52;2.70;98.60
19892;DHT22;10108;50.142;8.724;2023-03-01T03:01:20;2.60;98.60
19892;DHT22;10108;50.142;8.724;2023-03-01T03:03:47;2.70;98.80
19892;DHT22;10108;50.142;8.724;2023-03-01T03:06:13;2.70;98.70
19892;DHT22;10108;50.142;8.724;2023-03-01T03:08:40;2.70;98.70
19892;DHT22;10108;50.142;8.724;2023-03-01T03:11:06;2.60;98.50
19892;DHT22;10108;50.142;8.724;2023-03-01T03:13:32;2.60;98.70
19892;DHT22;10108;50.142;8.724;2023-03-01T03:15:58;2.60;98.70
19892;DHT22;10108;50.142;8.724;2023-03-01T03:18:25;2.60;98.70
19892;DHT22;10108;50.142;8.724;2023-03-01T03:20:54;2.50;98.80
19892;DHT22;10108;50.142;8.724;2023-03-01T03:23:21;2.50;98.90
19892;DHT22;10108;50.142;8.724;2023-03-01T03:25:51;2.50;98.80
19892;DHT22;10108;50.142;8.724;2023-03-01T03:28:17;2.40;98.80
19892;DHT22;10108;50.142;8.724;2023-03-01T03:30:44;2.40;98.90
19892;DHT22;10108;50.142;8.724;2023-03-01T03:33:11;2.50;99.00
19892;DHT22;10108;50.142;8.724;2023-03-01T03:35:46;2.40;98.90
19892;DHT22;10108;50.142;8.724;2023-03-01T03:38:15;2.40;99.10
19892;DHT22;10108;50.142;8.724;2023-03-01T03:40:44;2.40;99.10
19892;DHT22;10108;50.142;8.724;2023-03-01T03:43:13;2.40;99.40
19892;DHT22;10108;50.142;8.724;2023-03-01T03:45:40;2.40;99.40
19892;DHT22;10108;50.142;8.724;2023-03-01T03:48:08;2.40;99.30
19892;DHT22;10108;50.142;8.724;2023-03-01T03:50:39;2.40;99.40
19892;DHT22;10108;50.142;8.724;2023-03-01T03:53:10;2.40;99.40
19892;DHT22;10108;50.142;8.724;2023-03-01T03:55:37;2.30;99.40
19892;DHT22;10108;50.142;8.724;2023-03-01T03:58:07;2.30;99.50
19892;DHT22;10108;50.142;8.724;2023-03-01T04:00:38;2.30;99.50
19892;DHT22;10108;50.142;8.724;2023-03-01T04:03:05;2.30;99.50
19892;DHT22;10108;50.142;8.724;2023-03-01T04:05:31;2.30;99.50
19892;DHT22;10108;50.142;8.724;2023-03-01T04:07:57;2.30;99.50
19892;DHT22;10108;50.142;8.724;2023-03-01T04:10:35;2.30;99.40
19892;DHT22;10108;50.142;8.724;2023-03-01T04:13:07;2.30;99.70
19892;DHT22;10108;50.142;8.724;2023-03-01T04:15:33;2.30;99.60
19892;DHT22;10108;50.142;8.724;2023-03-01T04:17:59;2.20;99.50
19892;DHT22;10108;50.142;8.724;2023-03-01T04:20:29;2.20;99.40
19892;DHT22;10108;50.142;8.724;2023-03-01T04:23:03;2.20;99.60
19892;DHT22;10108;50.142;8.724;2023-03-01T04:28:11;2.20;99.80
19892;DHT22;10108;50.142;8.724;2023-03-01T04:30:38;2.20;99.90
19892;DHT22;10108;50.142;8.724;2023-03-01T04:33:06;2.20;99.90
19892;DHT22;10108;50.142;8.724;2023-03-01T04:35:32;2.10;99.90
19892;DHT22;10108;50.142;8.724;2023-03-01T04:37:59;2.10;99.90
19892;DHT22;10108;50.142;8.724;2023-03-01T04:40:25;2.10;99.90
19892;DHT22;10108;50.142;8.724;2023-03-01T04:42:51;2.10;99.90
19892;DHT22;10108;50.142;8.724;2023-03-01T04:45:17;2.10;99.90
19892;DHT22;10108;50.142;8.724;2023-03-01T04:47:45;2.10;99.90
19892;DHT22;10108;50.142;8.724;2023-03-01T04:50:14;2.10;99.90
19892;DHT22;10108;50.142;8.724;2023-03-01T04:52:40;2.00;99.90
19892;DHT22;10108;50.142;8.724;2023-03-01T04:55:07;2.00;99.90
19892;DHT22;10108;50.142;8.724;2023-03-01T04:57:34;2.00;99.90
19892;DHT22;10108;50.142;8.724;2023-03-01T05:00:00;2.10;99.90
19892;DHT22;10108;50.142;8.724;2023-03-01T05:02:26;2.10;99.90
19892;DHT22;10108;50.142;8.724;2023-03-01T05:04:52;2.10;99.90
19892;DHT22;10108;50.142;8.724;2023-03-01T05:07:23;2.10;99.90
19892;DHT22;10108;50.142;8.724;2023-03-01T05:09:50;2.10;99.90
19892;DHT22;10108;50.142;8.724;2023-03-01T05:12:16;2.10;99.90
19892;DHT22;10108;50.142;8.724;2023-03-01T05:14:42;2.10;99.90
19892;DHT22;10108;50.142;8.724;2023-03-01T05:17:09;2.10;99.90
19892;DHT22;10108;50.142;8.724;2023-03-01T05:19:35;2.10;99.90
19892;DHT22;10108;50.142;8.724;2023-03-01T05:22:01;2.00;99.90
19892;DHT22;10108;50.142;8.724;2023-03-01T05:24:28;2.00;99.90
19892;DHT22;10108;50.142;8.724;2023-03-01T05:26:55;2.10;99.90
19892;DHT22;10108;50.142;8.724;2023-03-01T05:29:22;2.10;99.90
19892;DHT22;10108;50.142;8.724;2023-03-01T05:31:52;2.10;99.90
19892;DHT22;10108;50.142;8.724;2023-03-01T05:34:27;2.00;99.90
19892;DHT22;10108;50.142;8.724;2023-03-01T05:36:53;2.00;99.90
19892;DHT22;10108;50.142;8.724;2023-03-01T05:39:24;2.00;99.90
19892;DHT22;10108;50.142;8.724;2023-03-01T05:41:58;2.10;99.90
19892;DHT22;10108;50.142;8.724;2023-03-01T05:44:26;2.00;99.90
19892;DHT22;10108;50.142;8.724;2023-03-01T05:46:52;2.00;99.90
19892;DHT22;10108;50.142;8.724;2023-03-01T05:49:19;2.00;99.90
19892;DHT22;10108;50.142;8.724;2023-03-01T05:51:50;2.00;99.90
19892;DHT22;10108;50.142;8.724;2023-03-01T05:54:17;2.00;99.90
19892;DHT22;10108;50.142;8.724;2023-03-01T05:56:43;2.00;99.90
19892;DHT22;10108;50.142;8.724;2023-03-01T05:59:10;2.00;99.90
19892;DHT22;10108;50.142;8.724;2023-03-01T06:01:37;2.00;99.90
19892;DHT22;10108;50.142;8.724;2023-03-01T06:04:04;2.00;99.90
19892;DHT22;10108;50.142;8.724;2023-03-01T06:06:34;2.00;99.90
19892;DHT22;10108;50.142;8.724;2023-03-01T06:09:06;2.00;99.90
19892;DHT22;10108;50.142;8.724;2023-03-01T06:11:35;2.10;99.90
19892;DHT22;10108;50.142;8.724;2023-03-01T06:14:02;2.10;99.90
19892;DHT22;10108;50.142;8.724;2023-03-01T06:16:29;2.10;99.90
19892;DHT22;10108;50.142;8.724;2023-03-01T06:18:55;2.10;99.90
19892;DHT22;10108;50.142;8.724;2023-03-01T06:21:21;2.10;99.90
19892;DHT22;10108;50.142;8.724;2023-03-01T06:23:47;2.10;99.90
19892;DHT22;10108;50.142;8.724;2023-03-01T06:26:13;2.10;99.90
19892;DHT22;10108;50.142;8.724;2023-03-01T06:28:39;2.10;99.90
19892;DHT22;10108;50.142;8.724;2023-03-01T06:31:05;2.10;99.90
19892;DHT22;10108;50.142;8.724;2023-03-01T06:33:34;2.20;99.90
19892;DHT22;10108;50.142;8.724;2023-03-01T06:36:01;2.20;99.90
19892;DHT22;10108;50.142;8.724;2023-03-01T06:38:28;2.20;99.90
19892;DHT22;10108;50.142;8.724;2023-03-01T06:40:55;2.20;99.90
19892;DHT22;10108;50.142;8.724;2023-03-01T06:43:23;2.10;99.90
19892;DHT22;10108;50.142;8.724;2023-03-01T06:45:49;2.20;99.90
19892;DHT22;10108;50.142;8.724;2023-03-01T06:48:15;2.20;99.90
19892;DHT22;10108;50.142;8.724;2023-03-01T06:50:42;2.20;99.90
19892;DHT22;10108;50.142;8.724;2023-03-01T06:53:08;2.30;99.90
19892;DHT22;10108;50.142;8.724;2023-03-01T06:55:34;2.30;99.90
19892;DHT22;10108;50.142;8.724;2023-03-01T06:58:01;2.30;99.90
19892;DHT22;10108;50.142;8.724;2023-03-01T07:00:28;2.30;99.90
19892;DHT22;10108;50.142;8.724;2023-03-01T07:02:56;2.40;99.90
19892;DHT22;10108;50.142;8.724;2023-03-01T07:05:23;2.40;99.90
19892;DHT22;10108;50.142;8.724;2023-03-01T07:07:49;2.40;99.90
19892;DHT22;10108;50.142;8.724;2023-03-01T07:10:16;2.40;99.90
19892;DHT22;10108;50.142;8.724;2023-03-01T07:12:42;2.40;99.90
19892;DHT22;10108;50.142;8.724;2023-03-01T07:15:09;2.40;99.90
19892;DHT22;10108;50.142;8.724;2023-03-01T07:17:36;2.40;99.90
19892;DHT22;10108;50.142;8.724;2023-03-01T07:20:02;2.40;99.90
19892;DHT22;10108;50.142;8.724;2023-03-01T07:22:28;2.40;99.90
19892;DHT22;10108;50.142;8.724;2023-03-01T07:24:54;2.40;99.90
19892;DHT22;10108;50.142;8.724;2023-03-01T07:27:20;2.40;99.90
19892;DHT22;10108;50.142;8.724;2023-03-01T07:29:46;2.40;99.90
19892;DHT22;10108;50.142;8.724;2023-03-01T07:32:12;2.30;99.90
19892;DHT22;10108;50.142;8.724;2023-03-01T07:34:39;2.30;99.90
19892;DHT22;10108;50.142;8.724;2023-03-01T07:37:05;2.30;99.90
19892;DHT22;10108;50.142;8.724;2023-03-01T07:39:31;2.20;99.90
19892;DHT22;10108;50.142;8.724;2023-03-01T07:41:57;2.20;99.90
19892;DHT22;10108;50.142;8.724;2023-03-01T07:44:23;2.20;99.90
19892;DHT22;10108;50.142;8.724;2023-03-01T07:46:49;2.20;99.90
19892;DHT22;10108;50.142;8.724;2023-03-01T07:49:15;2.20;99.90
19892;DHT22;10108;50.142;8.724;2023-03-01T07:51:43;2.20;99.90
19892;DHT22;10108;50.142;8.724;2023-03-01T07:54:09;2.20;99.90
19892;DHT22;10108;50.142;8.724;2023-03-01T07:56:35;2.10;99.90
19892;DHT22;10108;50.142;8.724;2023-03-01T07:59:01;2.20;99.90
19892;DHT22;10108;50.142;8.724;2023-03-01T08:01:27;2.20;99.90
19892;DHT22;10108;50.142;8.724;2023-03-01T08:03:53;2.20;99.90
19892;DHT22;10108;50.142;8.724;2023-03-01T08:06:19;2.30;99.90
19892;DHT22;10108;50.142;8.724;2023-03-01T08:08:46;2.30;99.90
19892;DHT22;10108;50.142;8.724;2023-03-01T08:11:13;2.30;99.90
19892;DHT22;10108;50.142;8.724;2023-03-01T08:13:39;2.30;99.90
19892;DHT22;10108;50.142;8.724;2023-03-01T08:16:08;2.40;99.90
19892;DHT22;10108;50.142;8.724;2023-03-01T08:18:35;2.40;99.90
19892;DHT22;10108;50.142;8.724;2023-03-01T08:21:12;2.40;99.90
19892;DHT22;10108;50.142;8.724;2023-03-01T08:23:38;2.50;99.90
19892;DHT22;10108;50.142;8.724;2023-03-01T08:26:16;2.50;99.90
19892;DHT22;10108;50.142;8.724;2023-03-01T08:28:42;2.60;99.90
19892;DHT22;10108;50.142;8.724;2023-03-01T08:31:18;2.70;99.90
19892;DHT22;10108;50.142;8.724;2023-03-01T08:33:46;2.80;99.90
19892;DHT22;10108;50.142;8.724;2023-03-01T08:36:22;2.80;99.90
19892;DHT22;10108;50.142;8.724;2023-03-01T08:38:49;2.80;99.90
19892;DHT22;10108;50.142;8.724;2023-03-01T08:41:15;2.80;99.90
19892;DHT22;10108;50.142;8.724;2023-03-01T08:43:41;2.80;99.90
19892;DHT22;10108;50.142;8.724;2023-03-01T08:46:08;2.90;99.90
19892;DHT22;10108;50.142;8.724;2023-03-01T08:48:34;2.90;99.90
19892;DHT22;10108;50.142;8.724;2023-03-01T08:51:17;3.00;99.90
19892;DHT22;10108;50.142;8.724;2023-03-01T08:53:44;3.10;99.90
19892;DHT22;10108;50.142;8.724;2023-03-01T08:56:10;3.10;99.90
19892;DHT22;10108;50.142;8.724;2023-03-01T08:58:37;3.20;99.90
19892;DHT22;10108;50.142;8.724;2023-03-01T09:01:12;3.30;99.90
19892;DHT22;10108;50.142;8.724;2023-03-01T09:03:38;3.30;99.90
19892;DHT22;10108;50.142;8.724;2023-03-01T09:06:05;3.40;99.90
19892;DHT22;10108;50.142;8.724;2023-03-01T09:08:38;3.40;99.90
19892;DHT22;10108;50.142;8.724;2023-03-01T09:11:06;3.50;99.90
19892;DHT22;10108;50.142;8.724;2023-03-01T09:13:33;3.50;99.90
19892;DHT22;10108;50.142;8.724;2023-03-01T09:16:02;3.50;99.90
19892;DHT22;10108;50.142;8.724;2023-03-01T09:18:29;3.60;99.90
19892;DHT22;10108;50.142;8.724;2023-03-01T09:21:09;3.70;99.90
19892;DHT22;10108;50.142;8.724;2023-03-01T09:23:43;3.70;99.90
19892;DHT22;10108;50.142;8.724;2023-03-01T09:26:15;3.80;99.90
19892;DHT22;10108;50.142;8.724;2023-03-01T09:28:46;3.80;99.90
19892;DHT22;10108;50.142;8.724;2023-03-01T09:31:13;3.80;99.90
19892;DHT22;10108;50.142;8.724;2023-03-01T09:33:40;3.80;99.90
19892;DHT22;10108;50.142;8.724;2023-03-01T09:36:11;3.90;99.90
19892;DHT22;10108;50.142;8.724;2023-03-01T09:38:37;3.90;99.90
19892;DHT22;10108;50.142;8.724;2023-03-01T09:41:11;3.90;99.90
19892;DHT22;10108;50.142;8.724;2023-03-01T09:43:50;4.00;99.90
19892;DHT22;10108;50.142;8.724;2023-03-01T09:46:22;4.00;99.90
19892;DHT22;10108;50.142;8.724;2023-03-01T09:48:56;4.10;99.90
19892;DHT22;10108;50.142;8.724;2023-03-01T09:51:35;4.10;99.90
19892;DHT22;10108;50.142;8.724;2023-03-01T09:54:03;4.10;99.90
19892;DHT22;10108;50.142;8.724;2023-03-01T09:56:41;4.10;99.90
19892;DHT22;10108;50.142;8.724;2023-03-01T10:04:49;4.30;99.90
19892;DHT22;10108;50.142;8.724;2023-03-01T10:10:05;4.30;99.90
19892;DHT22;10108;50.142;8.724;2023-03-01T10:12:37;4.40;99.90
19892;DHT22;10108;50.142;8.724;2023-03-01T10:15:18;4.40;99.90
19892;DHT22;10108;50.142;8.724;2023-03-01T10:18:09;4.50;99.90
19892;DHT22;10108;50.142;8.724;2023-03-01T10:23:19;4.50;99.90
19892;DHT22;10108;50.142;8.724;2023-03-01T10:28:59;4.60;99.90
19892;DHT22;10108;50.142;8.724;2023-03-01T10:31:42;4.70;99.80
19892;DHT22;10108;50.142;8.724;2023-03-01T10:34:20;4.70;99.90
19892;DHT22;10108;50.142;8.724;2023-03-01T10:36:51;4.80;99.70
19892;DHT22;10108;50.142;8.724;2023-03-01T10:39:21;4.70;99.80
19892;DHT22;10108;50.142;8.724;2023-03-01T10:42:02;4.70;99.90
19892;DHT22;10108;50.142;8.724;2023-03-01T10:44:46;4.70;99.90
19892;DHT22;10108;50.142;8.724;2023-03-01T10:47:25;4.80;99.90
19892;DHT22;10108;50.142;8.724;2023-03-01T10:52:24;4.90;99.90
19892;DHT22;10108;50.142;8.724;2023-03-01T10:54:56;4.90;99.90
19892;DHT22;10108;50.142;8.724;2023-03-01T10:57:32;5.00;99.50
19892;DHT22;10108;50.142;8.724;2023-03-01T11:02:42;5.10;99.80
19892;DHT22;10108;50.142;8.724;2023-03-01T11:05:19;5.20;99.70
19892;DHT22;10108;50.142;8.724;2023-03-01T11:07:49;5.30;99.50
19892;DHT22;10108;50.142;8.724;2023-03-01T11:10:20;5.30;99.60
19892;DHT22;10108;50.142;8.724;2023-03-01T11:12:46;5.30;99.70
19892;DHT22;10108;50.142;8.724;2023-03-01T11:15:22;5.30;99.80
19892;DHT22;10108;50.142;8.724;2023-03-01T11:17:49;5.40;99.90
19892;DHT22;10108;50.142;8.724;2023-03-01T11:25:27;5.40;99.70
19892;DHT22;10108;50.142;8.724;2023-03-01T11:27:55;5.50;99.30
19892;DHT22;10108;50.142;8.724;2023-03-01T11:30:31;5.50;99.80
19892;DHT22;10108;50.142;8.724;2023-03-01T11:33:18;5.50;99.00
19892;DHT22;10108;50.142;8.724;2023-03-01T11:38:44;5.60;99.20
19892;DHT22;10108;50.142;8.724;2023-03-01T11:41:19;5.70;97.20
19892;DHT22;10108;50.142;8.724;2023-03-01T11:44:01;5.70;97.50
19892;DHT22;10108;50.142;8.724;2023-03-01T11:51:46;5.80;98.10
19892;DHT22;10108;50.142;8.724;2023-03-01T11:54:30;5.80;98.30
19892;DHT22;10108;50.142;8.724;2023-03-01T11:57:18;5.90;97.30
19892;DHT22;10108;50.142;8.724;2023-03-01T12:08:43;6.10;97.70
19892;DHT22;10108;50.142;8.724;2023-03-01T12:16:50;6.20;98.40
19892;DHT22;10108;50.142;8.724;2023-03-01T12:22:28;6.20;98.60
19892;DHT22;10108;50.142;8.724;2023-03-01T12:30:35;6.20;98.50
19892;DHT22;10108;50.142;8.724;2023-03-01T12:33:33;6.30;99.00
19892;DHT22;10108;50.142;8.724;2023-03-01T12:45:01;6.30;99.10
19892;DHT22;10108;50.142;8.724;2023-03-01T12:50:41;6.40;98.30
19892;DHT22;10108;50.142;8.724;2023-03-01T12:53:30;6.40;98.70
19892;DHT22;10108;50.142;8.724;2023-03-01T12:56:17;6.50;98.70
19892;DHT22;10108;50.142;8.724;2023-03-01T13:07:15;6.60;98.60
19892;DHT22;10108;50.142;8.724;2023-03-01T13:09:56;6.70;98.50
19892;DHT22;10108;50.142;8.724;2023-03-01T13:18:00;6.70;98.80
19892;DHT22;10108;50.142;8.724;2023-03-01T13:23:13;6.80;99.80
19892;DHT22;10108;50.142;8.724;2023-03-01T13:33:46;6.90;99.80
19892;DHT22;10108;50.142;8.724;2023-03-01T13:38:55;7.00;99.90
19892;DHT22;10108;50.142;8.724;2023-03-01T13:44:37;7.10;99.90
19892;DHT22;10108;50.142;8.724;2023-03-01T13:47:14;7.10;99.30
19892;DHT22;10108;50.142;8.724;2023-03-01T13:49:53;7.10;99.50
19892;DHT22;10108;50.142;8.724;2023-03-01T13:54:59;7.10;99.30
19892;DHT22;10108;50.142;8.724;2023-03-01T13:57:33;7.00;99.40
19892;DHT22;10108;50.142;8.724;2023-03-01T13:59:59;7.10;99.40
19892;DHT22;10108;50.142;8.724;2023-03-01T14:02:26;7.10;99.60
19892;DHT22;10108;50.142;8.724;2023-03-01T14:04:59;7.00;99.40
19892;DHT22;10108;50.142;8.724;2023-03-01T14:07:27;7.10;98.70
19892;DHT22;10108;50.142;8.724;2023-03-01T14:10:02;7.10;98.80
19892;DHT22;10108;50.142;8.724;2023-03-01T14:12:50;7.20;98.50
19892;DHT22;10108;50.142;8.724;2023-03-01T14:15:25;7.20;99.00
19892;DHT22;10108;50.142;8.724;2023-03-01T14:20:30;7.20;99.00
19892;DHT22;10108;50.142;8.724;2023-03-01T14:23:00;7.20;98.70
19892;DHT22;10108;50.142;8.724;2023-03-01T14:25:30;7.30;98.70
19892;DHT22;10108;50.142;8.724;2023-03-01T14:28:03;7.20;98.90
19892;DHT22;10108;50.142;8.724;2023-03-01T14:30:36;7.20;99.00
19892;DHT22;10108;50.142;8.724;2023-03-01T14:33:16;7.20;98.90
19892;DHT22;10108;50.142;8.724;2023-03-01T14:35:52;7.20;98.40
19892;DHT22;10108;50.142;8.724;2023-03-01T14:38:39;7.30;98.60
19892;DHT22;10108;50.142;8.724;2023-03-01T14:41:15;7.20;98.40
19892;DHT22;10108;50.142;8.724;2023-03-01T14:43:45;7.20;98.20
19892;DHT22;10108;50.142;8.724;2023-03-01T14:46:21;7.30;98.10
19892;DHT22;10108;50.142;8.724;2023-03-01T14:48:51;7.30;98.00
19892;DHT22;10108;50.142;8.724;2023-03-01T14:51:18;7.20;98.20
19892;DHT22;10108;50.142;8.724;2023-03-01T14:53:44;7.20;98.60
19892;DHT22;10108;50.142;8.724;2023-03-01T14:56:15;7.20;98.40
19892;DHT22;10108;50.142;8.724;2023-03-01T14:58:43;7.20;97.20
19892;DHT22;10108;50.142;8.724;2023-03-01T15:01:14;7.30;97.50
19892;DHT22;10108;50.142;8.724;2023-03-01T15:03:46;7.30;97.80
19892;DHT22;10108;50.142;8.724;2023-03-01T15:06:22;7.20;97.70
19892;DHT22;10108;50.142;8.724;2023-03-01T15:08:51;7.20;97.20
19892;DHT22;10108;50.142;8.724;2023-03-01T15:11:32;7.30;96.80
19892;DHT22;10108;50.142;8.724;2023-03-01T15:13:59;7.30;96.90
19892;DHT22;10108;50.142;8.724;2023-03-01T15:16:26;7.30;96.80
19892;DHT22;10108;50.142;8.724;2023-03-01T15:19:15;7.30;97.00
19892;DHT22;10108;50.142;8.724;2023-03-01T15:21:44;7.30;96.90
19892;DHT22;10108;50.142;8.724;2023-03-01T15:26:59;7.30;97.10
19892;DHT22;10108;50.142;8.724;2023-03-01T15:29:33;7.30;96.70
19892;DHT22;10108;50.142;8.724;2023-03-01T15:32:28;7.30;97.10
19892;DHT22;10108;50.142;8.724;2023-03-01T15:34:54;7.20;96.80
19892;DHT22;10108;50.142;8.724;2023-03-01T15:37:46;7.20;96.00
19892;DHT22;10108;50.142;8.724;2023-03-01T15:40:23;7.20;96.50
19892;DHT22;10108;50.142;8.724;2023-03-01T15:43:01;7.20;96.00
19892;DHT22;10108;50.142;8.724;2023-03-01T15:45:29;7.20;96.90
19892;DHT22;10108;50.142;8.724;2023-03-01T15:48:01;7.10;96.70
19892;DHT22;10108;50.142;8.724;2023-03-01T15:50:31;7.10;96.50
19892;DHT22;10108;50.142;8.724;2023-03-01T15:53:05;7.10;96.50
19892;DHT22;10108;50.142;8.724;2023-03-01T15:55:36;7.10;96.40
19892;DHT22;10108;50.142;8.724;2023-03-01T15:58:10;7.00;96.50
19892;DHT22;10108;50.142;8.724;2023-03-01T16:00:38;7.00;96.50
19892;DHT22;10108;50.142;8.724;2023-03-01T16:03:06;7.00;96.00
19892;DHT22;10108;50.142;8.724;2023-03-01T16:05:35;7.00;96.30
19892;DHT22;10108;50.142;8.724;2023-03-01T16:08:03;7.00;96.90
19892;DHT22;10108;50.142;8.724;2023-03-01T16:10:30;6.90;96.60
19892;DHT22;10108;50.142;8.724;2023-03-01T16:12:57;6.90;96.70
19892;DHT22;10108;50.142;8.724;2023-03-01T16:15:29;6.90;96.80
19892;DHT22;10108;50.142;8.724;2023-03-01T16:17:55;6.90;96.80
19892;DHT22;10108;50.142;8.724;2023-03-01T16:20:24;6.90;96.40
19892;DHT22;10108;50.142;8.724;2023-03-01T16:22:51;6.80;96.50
19892;DHT22;10108;50.142;8.724;2023-03-01T16:25:18;6.70;96.40
19892;DHT22;10108;50.142;8.724;2023-03-01T16:27:46;6.70;95.90
19892;DHT22;10108;50.142;8.724;2023-03-01T16:30:14;6.70;96.10
19892;DHT22;10108;50.142;8.724;2023-03-01T16:32:44;6.70;96.30
19892;DHT22;10108;50.142;8.724;2023-03-01T16:35:13;6.60;96.20
19892;DHT22;10108;50.142;8.724;2023-03-01T16:37:40;6.60;96.40
19892;DHT22;10108;50.142;8.724;2023-03-01T16:42:40;6.50;96.40
19892;DHT22;10108;50.142;8.724;2023-03-01T16:45:07;6.50;96.00
19892;DHT22;10108;50.142;8.724;2023-03-01T16:47:34;6.50;95.80
19892;DHT22;10108;50.142;8.724;2023-03-01T16:50:00;6.50;96.00
19892;DHT22;10108;50.142;8.724;2023-03-01T16:52:26;6.40;96.20
19892;DHT22;10108;50.142;8.724;2023-03-01T16:54:53;6.40;96.00
19892;DHT22;10108;50.142;8.724;2023-03-01T16:57:19;6.40;96.50
19892;DHT22;10108;50.142;8.724;2023-03-01T16:59:45;6.30;96.40
19892;DHT22;10108;50.142;8.724;2023-03-01T17:02:12;6.30;96.10
19892;DHT22;10108;50.142;8.724;2023-03-01T17:04:39;6.30;96.70
19892;DHT22;10108;50.142;8.724;2023-03-01T17:07:05;6.30;96.50
19892;DHT22;10108;50.142;8.724;2023-03-01T17:09:35;6.30;96.30
19892;DHT22;10108;50.142;8.724;2023-03-01T17:12:03;6.20;96.10
19892;DHT22;10108;50.142;8.724;2023-03-01T17:14:30;6.20;96.20
19892;DHT22;10108;50.142;8.724;2023-03-01T17:16:56;6.20;95.90
19892;DHT22;10108;50.142;8.724;2023-03-01T17:19:22;6.10;96.30
19892;DHT22;10108;50.142;8.724;2023-03-01T17:21:49;6.10;96.00
19892;DHT22;10108;50.142;8.724;2023-03-01T17:24:15;6.10;95.90
19892;DHT22;10108;50.142;8.724;2023-03-01T17:26:41;6.10;96.30
19892;DHT22;10108;50.142;8.724;2023-03-01T17:29:07;6.00;96.60
19892;DHT22;10108;50.142;8.724;2023-03-01T17:31:34;6.00;96.50
19892;DHT22;10108;50.142;8.724;2023-03-01T17:34:00;6.00;96.80
19892;DHT22;10108;50.142;8.724;2023-03-01T17:36:26;5.90;96.50
19892;DHT22;10108;50.142;8.724;2023-03-01T17:38:52;5.90;96.20
19892;DHT22;10108;50.142;8.724;2023-03-01T17:41:18;5.90;96.40
19892;DHT22;10108;50.142;8.724;2023-03-01T17:43:46;5.90;96.80
19892;DHT22;10108;50.142;8.724;2023-03-01T17:46:13;5.90;96.20
19892;DHT22;10108;50.142;8.724;2023-03-01T17:48:39;5.80;96.00
19892;DHT22;10108;50.142;8.724;2023-03-01T17:51:09;5.80;96.20
19892;DHT22;10108;50.142;8.724;2023-03-01T17:53:37;5.80;96.20
19892;DHT22;10108;50.142;8.724;2023-03-01T17:56:05;5.80;96.70
19892;DHT22;10108;50.142;8.724;2023-03-01T17:58:31;5.70;96.90
19892;DHT22;10108;50.142;8.724;2023-03-01T18:01:12;5.70;97.00
19892;DHT22;10108;50.142;8.724;2023-03-01T18:03:40;5.70;96.70
19892;DHT22;10108;50.142;8.724;2023-03-01T18:06:13;5.70;96.50